Time;durP1;ratioP1;P1;durP2;ratioP2;P2;SDS_P1;SDS_P2;PMS_P1;PMS_P2;Temp;Humidity;BMP_temperature;BMP_pressure;BME280_temperature;BME280_humidity;BME280_pressure;Samples;Min_cycle;Max_cycle;Signal;HPM_P1;HPM_P2
2023/03/21 00:00:44;;;;;;;22.00;12.95;;;;;;;7.41;100.00;101706.84;5115034;28;20101;-73
2023/03/21 00:03:10;;;;;;;23.52;12.80;;;;;;;7.39;100.00;101702.59;5115327;28;20460;-73
2023/03/21 00:05:50;;;;;;;22.67;13.23;;;;;;;7.41;100.00;101703.34;5114975;27;20038;-74
2023/03/21 00:08:16;;;;;;;23.95;13.15;;;;;;;7.41;100.00;101698.88;5114807;28;20035;-74
2023/03/21 00:10:42;;;;;;;25.17;13.25;;;;;;;7.44;100.00;101689.91;5114234;28;20027;-74
2023/03/21 00:13:07;;;;;;;22.20;12.68;;;;;;;7.46;100.00;101687.16;5115259;28;20577;-74
2023/03/21 00:15:32;;;;;;;21.90;12.65;;;;;;;7.47;100.00;101688.88;5114947;28;20038;-74
2023/03/21 00:18:02;;;;;;;22.95;13.50;;;;;;;7.45;100.00;101688.97;5114143;28;20030;-74
2023/03/21 00:20:30;;;;;;;22.10;12.35;;;;;;;7.47;100.00;101689.72;5114928;28;20114;-74
2023/03/21 00:22:55;;;;;;;21.20;12.45;;;;;;;7.46;100.00;101692.47;5113179;28;20051;-74
2023/03/21 00:25:20;;;;;;;23.00;12.45;;;;;;;7.46;100.00;101688.00;5114684;28;20519;-74
2023/03/21 00:27:46;;;;;;;21.10;13.25;;;;;;;7.45;100.00;101683.69;5114286;28;20032;-74
2023/03/21 00:30:11;;;;;;;20.83;13.30;;;;;;;7.44;100.00;101687.25;5114707;28;20028;-74
2023/03/21 00:32:37;;;;;;;21.35;13.48;;;;;;;7.41;100.00;101690.09;5114352;28;20464;-72
2023/03/21 00:35:02;;;;;;;23.38;13.85;;;;;;;7.39;100.00;101684.06;5096103;28;20040;-74
2023/03/21 00:37:27;;;;;;;21.67;13.80;;;;;;;7.42;100.00;101689.16;5114346;28;20089;-73
2023/03/21 00:39:53;;;;;;;23.50;14.05;;;;;;;7.39;100.00;101684.06;5114129;28;20050;-73
2023/03/21 00:42:18;;;;;;;24.95;14.00;;;;;;;7.39;100.00;101684.91;5114805;28;20464;-73
2023/03/21 00:44:44;;;;;;;23.13;14.40;;;;;;;7.39;100.00;101682.25;5114010;28;20503;-74
2023/03/21 00:47:11;;;;;;;23.73;13.57;;;;;;;7.37;100.00;101672.72;5114323;27;20430;-74
2023/03/21 00:49:37;;;;;;;21.42;13.50;;;;;;;7.38;100.00;101677.06;5114350;28;20028;-74
2023/03/21 00:52:07;;;;;;;19.23;12.55;;;;;;;7.35;100.00;101678.09;5113729;28;20031;-74
2023/03/21 00:54:34;;;;;;;22.35;14.02;;;;;;;7.33;100.00;101669.41;5114471;28;20031;-74
2023/03/21 00:57:01;;;;;;;31.20;14.68;;;;;;;7.33;100.00;101669.41;5113912;27;20027;-74
2023/03/21 00:59:27;;;;;;;27.20;14.00;;;;;;;7.35;100.00;101664.03;5114173;28;20172;-74
2023/03/21 01:01:53;;;;;;;30.02;15.25;;;;;;;7.34;100.00;101665.81;5113772;28;20110;-74
2023/03/21 01:04:20;;;;;;;30.20;16.13;;;;;;;7.31;100.00;101655.41;5114336;28;20107;-75
2023/03/21 01:06:46;;;;;;;23.42;14.63;;;;;;;7.33;100.00;101660.59;5113705;28;20024;-74
2023/03/21 01:09:17;;;;;;;28.20;14.75;;;;;;;7.34;100.00;101657.03;5113967;27;20387;-74
2023/03/21 01:11:43;;;;;;;27.75;14.93;;;;;;;7.33;100.00;101652.66;5113693;28;20027;-74
2023/03/21 01:14:10;;;;;;;29.58;15.27;;;;;;;7.31;100.00;101643.97;5114025;28;20035;-74
2023/03/21 01:16:36;;;;;;;30.67;15.30;;;;;;;7.31;100.00;101643.97;5113968;28;20062;-74
2023/03/21 01:19:03;;;;;;;28.38;15.07;;;;;;;7.30;100.00;101635.19;5113081;28;20035;-74
2023/03/21 01:21:30;;;;;;;27.15;14.35;;;;;;;7.31;100.00;101636.88;5113650;28;20066;-74
2023/03/21 01:23:56;;;;;;;28.55;14.02;;;;;;;7.31;100.00;101630.75;5113200;28;20031;-74
2023/03/21 01:26:21;;;;;;;27.15;13.77;;;;;;;7.31;100.00;101634.22;5113758;28;20076;-74
2023/03/21 01:28:46;;;;;;;27.40;13.52;;;;;;;7.33;100.00;101629.72;5113525;28;20038;-74
2023/03/21 01:31:14;;;;;;;27.10;13.60;;;;;;;7.34;100.00;101623.44;5113721;28;20023;-74
2023/03/21 01:33:40;;;;;;;24.35;13.68;;;;;;;7.33;100.00;101624.41;5113503;28;20051;-74
2023/03/21 01:36:07;;;;;;;27.42;13.57;;;;;;;7.34;100.00;101622.59;5113251;28;20043;-74
2023/03/21 01:38:32;;;;;;;22.63;13.40;;;;;;;7.34;100.00;101623.44;5113491;28;20024;-74
2023/03/21 01:41:03;;;;;;;25.50;13.80;;;;;;;7.32;100.00;101620.06;5111798;28;20095;-74
2023/03/21 01:43:39;;;;;;;26.38;13.25;;;;;;;7.34;100.00;101619.97;5113540;28;20042;-74
2023/03/21 01:46:23;;;;;;;27.20;13.85;;;;;;;7.33;100.00;101620.91;5113049;28;20027;-74
2023/03/21 01:49:33;;;;;;;26.27;13.43;;;;;;;7.33;100.00;101616.47;5112630;28;20511;-74
2023/03/21 01:52:09;;;;;;;25.73;13.43;;;;;;;7.34;100.00;101623.44;5113251;28;20452;-74
2023/03/21 01:54:40;;;;;;;27.92;13.18;;;;;;;7.35;100.00;101617.22;5112931;28;20032;-74
2023/03/21 01:57:11;;;;;;;24.80;13.10;;;;;;;7.37;100.00;101619.75;5112948;28;20034;-74
2023/03/21 01:59:44;;;;;;;27.30;13.60;;;;;;;7.34;100.00;101618.16;5113261;28;20039;-74
2023/03/21 02:02:19;;;;;;;23.55;12.98;;;;;;;7.34;100.00;101612.84;5112312;28;20480;-74
2023/03/21 02:04:49;;;;;;;23.20;13.38;;;;;;;7.36;100.00;101612.75;5113130;28;20092;-74
2023/03/21 02:07:18;;;;;;;21.65;13.27;;;;;;;7.35;100.00;101611.06;5111832;28;20069;-74
2023/03/21 02:09:47;;;;;;;23.85;12.93;;;;;;;7.35;100.00;101603.13;5113106;28;20031;-74
2023/03/21 02:12:15;;;;;;;26.75;13.38;;;;;;;7.32;100.00;101606.81;5112707;28;20080;-74
2023/03/21 02:14:41;;;;;;;23.85;13.23;;;;;;;7.30;100.00;101605.22;5111923;28;20072;-76
2023/03/21 02:17:38;;;;;;;26.42;13.85;;;;;;;7.28;100.00;101601.81;5112518;28;20032;-75
2023/03/21 02:20:28;;;;;;;26.95;13.48;;;;;;;7.26;100.00;101599.28;5101130;28;20039;-75
2023/03/21 02:23:24;;;;;;;21.90;12.98;;;;;;;7.25;100.00;101594.94;5112666;28;20027;-75
2023/03/21 02:26:27;;;;;;;25.08;13.30;;;;;;;7.20;100.00;101587.28;5112811;28;20116;-75
2023/03/21 02:29:05;;;;;;;26.52;13.85;;;;;;;7.19;100.00;101590.03;5112474;28;20028;-75
2023/03/21 02:31:45;;;;;;;27.10;12.77;;;;;;;7.19;100.00;101580.28;5116561;28;20444;-74
2023/03/21 02:34:28;;;;;;;26.50;13.95;;;;;;;7.18;100.00;101578.59;5119387;27;20048;-75
2023/03/21 02:36:56;;;;;;;24.00;13.88;;;;;;;7.16;100.00;101577.00;5119129;27;20119;-75
2023/03/21 02:39:40;;;;;;;27.63;13.30;;;;;;;7.16;100.00;101579.63;5119553;27;20038;-74
2023/03/21 02:42:47;;;;;;;23.17;12.35;;;;;;;7.14;100.00;101577.09;5119266;27;20111;-74
2023/03/21 02:45:24;;;;;;;22.63;12.68;;;;;;;7.14;100.00;101571.81;5078344;27;20039;-73
2023/03/21 02:47:58;;;;;;;24.88;12.77;;;;;;;7.13;100.00;101563.97;5119596;27;20032;-74
2023/03/21 02:50:30;;;;;;;24.00;12.88;;;;;;;7.14;100.00;101570.97;5118117;28;20114;-74
2023/03/21 02:52:57;;;;;;;23.50;12.32;;;;;;;7.10;100.00;101559.72;5119116;27;20027;-74
2023/03/21 02:55:29;;;;;;;29.15;13.52;;;;;;;7.09;100.00;101567.75;5119756;27;20034;-73
2023/03/21 02:57:56;;;;;;;25.20;12.85;;;;;;;7.07;100.00;101554.63;5119304;27;20103;-74
2023/03/21 03:00:28;;;;;;;24.02;12.75;;;;;;;7.05;100.00;101559.16;5119306;28;20035;-73
2023/03/21 03:02:54;;;;;;;23.58;11.57;;;;;;;7.04;100.00;101563.59;5119308;27;20035;-74
2023/03/21 03:05:25;;;;;;;28.77;12.63;;;;;;;7.04;100.00;101560.09;5117500;28;20030;-74
2023/03/21 03:08:06;;;;;;;29.05;11.93;;;;;;;7.03;100.00;101561.91;5119046;27;20463;-73
2023/03/21 03:10:47;;;;;;;26.23;12.90;;;;;;;7.04;100.00;101560.09;5119374;27;20077;-73
2023/03/21 03:13:24;;;;;;;31.70;12.50;;;;;;;7.04;100.00;101554.81;5118817;27;20760;-73
2023/03/21 03:16:18;;;;;;;29.40;11.80;;;;;;;7.02;100.00;101560.19;5119327;27;20475;-73
2023/03/21 03:18:55;;;;;;;29.48;11.68;;;;;;;7.02;100.00;101562.00;5119413;27;20019;-73
2023/03/21 03:21:39;;;;;;;24.98;11.50;;;;;;;7.00;100.00;101554.16;5118893;28;20043;-74
2023/03/21 03:24:32;;;;;;;24.23;11.40;;;;;;;7.04;100.00;101557.47;5118698;27;20073;-74
2023/03/21 03:27:22;;;;;;;31.27;10.63;;;;;;;7.02;100.00;101559.38;5110701;28;20043;-74
2023/03/21 03:29:50;;;;;;;23.05;11.05;;;;;;;7.02;100.00;101554.06;5119107;28;20070;-74
2023/03/21 03:32:22;;;;;;;34.55;10.93;;;;;;;6.99;100.00;101549.81;5117727;28;20035;-74
2023/03/21 03:34:55;;;;;;;27.33;10.80;;;;;;;6.98;100.00;101556.03;5119107;27;20044;-74
2023/03/21 03:37:25;;;;;;;26.83;11.55;;;;;;;6.99;100.00;101551.63;5118692;27;20362;-74
2023/03/21 03:40:15;;;;;;;26.75;10.70;;;;;;;6.98;100.00;101552.56;5119017;27;20595;-74
2023/03/21 03:42:51;;;;;;;27.47;11.10;;;;;;;6.96;100.00;101547.38;5116766;28;20107;-74
2023/03/21 03:45:18;;;;;;;31.05;10.93;;;;;;;6.96;100.00;101541.25;5115403;28;20056;-74
2023/03/21 03:47:52;;;;;;;20.58;10.15;;;;;;;6.97;100.00;101546.44;5115757;28;20052;-74
2023/03/21 03:50:31;;;;;;;26.35;10.30;;;;;;;6.96;100.00;101544.72;5115030;28;20028;-74
2023/03/21 03:53:27;;;;;;;19.63;10.45;;;;;;;6.98;100.00;101545.47;5114417;28;20059;-74
2023/03/21 03:55:54;;;;;;;26.10;10.48;;;;;;;6.98;100.00;101548.09;5106708;28;20040;-74
2023/03/21 03:58:22;;;;;;;26.67;11.52;;;;;;;6.97;100.00;101538.50;5115046;28;20043;-74
2023/03/21 04:00:48;;;;;;;24.63;11.10;;;;;;;6.97;100.00;101533.22;5115554;28;20032;-74
2023/03/21 04:03:14;;;;;;;24.55;10.38;;;;;;;6.97;100.00;101537.63;5113702;28;20043;-74
2023/03/21 04:05:40;;;;;;;20.95;10.80;;;;;;;6.95;100.00;101534.25;5115074;28;20085;-75
2023/03/21 04:08:07;;;;;;;31.00;12.55;;;;;;;6.93;100.00;101531.69;5115093;28;20032;-74
2023/03/21 04:10:32;;;;;;;27.42;11.00;;;;;;;6.91;100.00;101528.28;5115293;28;20036;-74
2023/03/21 04:12:58;;;;;;;28.98;12.20;;;;;;;6.91;100.00;101530.09;5115387;28;20361;-74
2023/03/21 04:15:23;;;;;;;27.92;11.63;;;;;;;6.89;100.00;101533.66;5114878;28;20032;-74
2023/03/21 04:17:49;;;;;;;37.28;12.60;;;;;;;6.89;100.00;101533.66;5115292;28;20066;-74
2023/03/21 04:20:15;;;;;;;24.85;11.63;;;;;;;6.89;100.00;101531.03;5114823;28;20072;-75
2023/03/21 04:22:40;;;;;;;28.38;12.13;;;;;;;6.90;100.00;101523.97;5115007;27;20031;-74
2023/03/21 04:25:07;;;;;;;28.35;12.85;;;;;;;6.89;100.00;101524.91;5113897;28;20028;-74
2023/03/21 04:27:32;;;;;;;31.13;12.07;;;;;;;6.88;100.00;101520.53;5113824;28;20028;-74
2023/03/21 04:29:58;;;;;;;26.45;12.65;;;;;;;6.86;100.00;101517.16;5114878;27;20028;-75
2023/03/21 04:32:25;;;;;;;26.60;12.95;;;;;;;6.85;100.00;101524.25;5114538;28;20031;-74
2023/03/21 04:34:53;;;;;;;26.25;12.00;;;;;;;6.85;100.00;101520.75;5114979;28;20048;-75
2023/03/21 04:37:22;;;;;;;35.97;13.10;;;;;;;6.83;100.00;101515.56;5114758;28;20032;-75
2023/03/21 04:39:49;;;;;;;37.15;13.02;;;;;;;6.82;100.00;101526.22;5114918;28;20122;-75
2023/03/21 04:42:17;;;;;;;26.73;12.95;;;;;;;6.82;100.00;101513.88;5114364;28;20031;-75
2023/03/21 04:44:43;;;;;;;29.42;14.05;;;;;;;6.80;100.00;101515.75;5114637;28;20028;-74
2023/03/21 04:47:09;;;;;;;34.88;13.82;;;;;;;6.79;100.00;101508.78;5113174;28;20039;-74
2023/03/21 04:49:35;;;;;;;29.05;13.55;;;;;;;6.79;100.00;101514.06;5114596;28;20483;-74
2023/03/21 04:52:00;;;;;;;35.90;14.77;;;;;;;6.81;100.00;101501.59;5114549;28;20032;-74
2023/03/21 04:54:26;;;;;;;26.42;14.02;;;;;;;6.83;100.00;101501.47;5113048;27;20411;-75
2023/03/21 04:56:51;;;;;;;33.55;14.52;;;;;;;6.83;100.00;101498.84;5114390;28;20114;-74
2023/03/21 04:59:18;;;;;;;32.38;14.82;;;;;;;6.82;100.00;101490.06;5113915;28;20031;-74
2023/03/21 05:01:44;;;;;;;28.23;14.70;;;;;;;6.82;100.00;101489.19;5114422;28;20036;-74
2023/03/21 05:04:11;;;;;;;33.03;14.40;;;;;;;6.84;100.00;101482.03;5114457;27;20036;-74
2023/03/21 05:06:36;;;;;;;33.67;13.60;;;;;;;6.82;100.00;101483.91;5114646;28;20069;-74
2023/03/21 05:09:04;;;;;;;32.80;13.27;;;;;;;6.80;100.00;101486.66;5114172;28;20027;-74
2023/03/21 05:11:30;;;;;;;34.80;13.80;;;;;;;6.79;100.00;101487.63;5113736;28;20559;-74
2023/03/21 05:13:56;;;;;;;34.15;13.80;;;;;;;6.80;100.00;101488.47;5114380;28;20475;-74
2023/03/21 05:16:25;;;;;;;32.53;13.43;;;;;;;6.80;100.00;101499.88;5113351;28;20031;-73
2023/03/21 05:18:53;;;;;;;34.03;13.57;;;;;;;6.80;100.00;101494.59;5113907;28;20468;-73
2023/03/21 05:21:19;;;;;;;27.45;13.15;;;;;;;6.79;100.00;101492.03;5113605;28;20057;-74
2023/03/21 05:23:44;;;;;;;33.67;15.27;;;;;;;6.80;100.00;101499.88;5114106;28;20031;-74
2023/03/21 05:26:11;;;;;;;29.35;13.45;;;;;;;6.78;100.00;101496.50;5113621;28;20077;-74
2023/03/21 05:28:36;;;;;;;33.22;13.68;;;;;;;6.78;100.00;101496.50;5113401;27;20482;-74
2023/03/21 05:31:03;;;;;;;26.73;13.32;;;;;;;6.76;100.00;101490.44;5113582;28;20126;-75
2023/03/21 05:33:28;;;;;;;27.23;13.27;;;;;;;6.76;100.00;101489.59;5113027;28;20482;-74
2023/03/21 05:35:54;;;;;;;34.72;14.05;;;;;;;6.77;100.00;101491.31;5113840;28;20085;-74
2023/03/21 05:38:19;;;;;;;33.17;14.93;;;;;;;6.77;100.00;101497.44;5113284;28;20427;-74
2023/03/21 05:40:49;;;;;;;31.38;14.15;;;;;;;6.76;100.00;101489.59;5113631;28;20039;-74
2023/03/21 05:43:14;;;;;;;32.97;14.00;;;;;;;6.76;100.00;101490.44;5113592;28;20034;-74
2023/03/21 05:45:40;;;;;;;33.90;14.52;;;;;;;6.74;100.00;101496.78;5113134;27;20118;-74
2023/03/21 05:48:06;;;;;;;27.95;13.02;;;;;;;6.75;100.00;101495.81;5113529;28;20376;-74
2023/03/21 05:50:31;;;;;;;34.05;13.27;;;;;;;6.75;100.00;101493.19;5112822;28;20027;-74
2023/03/21 05:52:57;;;;;;;38.47;14.18;;;;;;;6.74;100.00;101489.69;5113573;28;20038;-74
2023/03/21 05:55:22;;;;;;;33.13;13.30;;;;;;;6.77;100.00;101500.06;5113016;28;20035;-75
2023/03/21 05:57:47;;;;;;;30.17;13.45;;;;;;;6.76;100.00;101487.78;5113446;28;20110;-73
2023/03/21 06:00:14;;;;;;;28.55;12.88;;;;;;;6.79;100.00;101497.34;5113276;28;20096;-73
2023/03/21 06:02:39;;;;;;;28.15;13.32;;;;;;;6.81;100.00;101492.81;5112776;27;20521;-73
2023/03/21 06:05:05;;;;;;;31.20;12.25;;;;;;;6.84;100.00;101495.25;5113215;28;20043;-73
2023/03/21 06:07:31;;;;;;;23.40;10.90;;;;;;;6.87;100.00;101492.41;5112438;28;20455;-74
2023/03/21 06:09:57;;;;;;;32.78;12.50;;;;;;;6.90;100.00;101492.22;5112987;28;20027;-73
2023/03/21 06:12:22;;;;;;;27.65;11.00;;;;;;;6.91;100.00;101490.41;5112799;28;20035;-74
2023/03/21 06:14:47;;;;;;;24.23;11.27;;;;;;;6.93;100.00;101496.47;5113003;28;20055;-73
2023/03/21 06:17:13;;;;;;;26.35;11.80;;;;;;;6.92;100.00;101492.94;5113254;28;20114;-74
2023/03/21 06:19:38;;;;;;;26.33;10.85;;;;;;;6.88;100.00;101489.66;5112579;28;20097;-74
2023/03/21 06:22:03;;;;;;;29.52;11.52;;;;;;;6.89;100.00;101487.84;5112920;28;20024;-74
2023/03/21 06:24:29;;;;;;;29.08;11.98;;;;;;;6.86;100.00;101482.78;5112847;28;20448;-74
2023/03/21 06:26:54;;;;;;;27.50;11.63;;;;;;;6.84;100.00;101493.44;5109313;28;20035;-73
2023/03/21 06:29:20;;;;;;;28.05;11.23;;;;;;;6.85;100.00;101486.34;5108913;28;20114;-73
2023/03/21 06:31:45;;;;;;;26.65;11.25;;;;;;;6.83;100.00;101491.75;5109440;28;20043;-73
2023/03/21 06:34:11;;;;;;;26.27;11.70;;;;;;;6.83;100.00;101496.19;5109478;28;20056;-73
2023/03/21 06:36:36;;;;;;;23.35;11.18;;;;;;;6.82;100.00;101489.19;5109660;28;20092;-75
2023/03/21 06:39:02;;;;;;;33.45;12.20;;;;;;;6.82;100.00;101486.56;5109328;28;20040;-74
2023/03/21 06:41:28;;;;;;;27.70;11.48;;;;;;;6.81;100.00;101496.28;5109532;28;20038;-75
2023/03/21 06:43:53;;;;;;;29.13;12.00;;;;;;;6.79;100.00;101490.25;5109919;28;20091;-77
2023/03/21 06:46:19;;;;;;;27.27;11.45;;;;;;;6.80;100.00;101485.81;5110001;28;20494;-75
2023/03/21 06:48:44;;;;;;;27.70;10.65;;;;;;;6.77;100.00;101481.56;5109367;28;20502;-72
2023/03/21 06:51:14;;;;;;;23.95;10.68;;;;;;;6.77;100.00;101476.28;5109655;28;20464;-73
2023/03/21 06:53:40;;;;;;;26.35;10.98;;;;;;;6.75;100.00;101472.88;5109550;28;20118;-73
2023/03/21 06:56:10;;;;;;;26.92;11.18;;;;;;;6.75;100.00;101464.09;5109988;28;20036;-73
2023/03/21 06:58:35;;;;;;;20.83;10.68;;;;;;;6.75;100.00;101467.59;5109613;28;20043;-76
2023/03/21 07:01:02;;;;;;;25.38;10.20;;;;;;;6.73;100.00;101456.25;5109773;28;20403;-74
2023/03/21 07:03:28;;;;;;;23.40;10.38;;;;;;;6.74;100.00;101441.25;5109076;28;20543;-75
2023/03/21 07:05:53;;;;;;;22.65;10.40;;;;;;;6.76;100.00;101455.22;5109596;28;20046;-74
2023/03/21 07:08:19;;;;;;;21.25;10.05;;;;;;;6.76;100.00;101450.75;5109741;28;20040;-74
2023/03/21 07:10:45;;;;;;;23.20;10.80;;;;;;;6.77;100.00;101455.13;5108001;28;20067;-74
2023/03/21 07:13:11;;;;;;;21.55;10.25;;;;;;;6.79;100.00;101460.31;5109685;28;20118;-74
2023/03/21 07:15:37;;;;;;;23.13;10.60;;;;;;;6.80;100.00;101456.72;5108813;28;20118;-74
2023/03/21 07:18:04;;;;;;;24.23;10.95;;;;;;;6.82;100.00;101446.88;5110699;28;20030;-74
2023/03/21 07:20:30;;;;;;;23.15;10.57;;;;;;;6.85;100.00;101452.84;5113052;28;20043;-75
2023/03/21 07:22:57;;;;;;;19.00;10.13;;;;;;;6.88;100.00;101449.13;5113373;28;20513;-74
2023/03/21 07:25:22;;;;;;;23.23;10.75;;;;;;;6.93;100.00;101449.69;5113772;28;20032;-74
2023/03/21 07:27:48;;;;;;;29.90;10.52;;;;;;;6.96;100.00;101451.28;5112483;28;20039;-74
2023/03/21 07:30:14;;;;;;;26.17;10.30;;;;;;;6.97;100.00;101443.25;5113346;28;20049;-73
2023/03/21 07:32:40;;;;;;;23.20;10.57;;;;;;;6.99;100.00;101437.84;5113188;28;20089;-74
2023/03/21 07:35:09;;;;;;;20.02;9.90;;;;;;;7.01;100.00;101444.72;5113267;28;20059;-74
2023/03/21 07:37:35;;;;;;;21.63;9.48;;;;;;;7.04;100.00;101439.22;5112907;28;20085;-74
2023/03/21 07:40:00;;;;;;;24.98;10.00;;;;;;;7.05;100.00;101440.09;5113229;28;20044;-74
2023/03/21 07:42:26;;;;;;;17.83;10.00;;;;;;;7.08;100.00;101439.88;5113197;28;20069;-74
2023/03/21 07:44:53;;;;;;;22.85;9.90;;;;;;;7.11;100.00;101441.50;5105483;28;20036;-74
2023/03/21 07:47:19;;;;;;;23.98;10.27;;;;;;;7.15;100.00;101438.53;5094610;28;20126;-74
2023/03/21 07:49:45;;;;;;;27.17;10.25;;;;;;;7.20;100.00;101439.06;5094726;28;20028;-74
2023/03/21 07:52:11;;;;;;;25.58;9.93;;;;;;;7.27;100.00;101426.28;5095623;28;20506;-74
2023/03/21 07:54:37;;;;;;;25.08;9.93;;;;;;;7.34;100.00;101424.06;5095016;28;20056;-74
2023/03/21 07:57:03;;;;;;;27.15;10.35;;;;;;;7.45;100.00;101431.25;5095296;28;20456;-74
2023/03/21 07:59:28;;;;;;;24.92;10.15;;;;;;;7.57;100.00;101419.84;5094013;28;20082;-74
2023/03/21 08:01:53;;;;;;;24.23;9.50;;;;;;;7.67;100.00;101420.88;5094887;28;20035;-74
2023/03/21 08:04:19;;;;;;;25.88;10.68;;;;;;;7.75;100.00;101412.44;5095245;28;20543;-75
2023/03/21 08:06:44;;;;;;;23.20;10.88;;;;;;;7.81;100.00;101419.94;5094667;28;20107;-74
2023/03/21 08:09:10;;;;;;;28.55;10.35;;;;;;;7.87;100.00;101411.56;5094954;28;20036;-74
2023/03/21 08:11:35;;;;;;;22.48;9.85;;;;;;;7.90;100.00;101424.59;5095073;28;20020;-74
2023/03/21 08:14:00;;;;;;;18.33;9.35;;;;;;;7.95;100.00;101418.97;5094389;28;20033;-74
2023/03/21 08:16:27;;;;;;;24.00;9.55;;;;;;;7.97;100.00;101414.41;5095039;28;20472;-74
2023/03/21 08:18:52;;;;;;;24.55;9.93;;;;;;;8.01;100.00;101415.06;5094443;28;20024;-74
2023/03/21 08:21:18;;;;;;;23.02;9.02;;;;;;;8.10;100.00;101415.22;5094961;28;20353;-74
2023/03/21 08:23:43;;;;;;;22.52;9.38;;;;;;;8.21;100.00;101409.19;5094469;28;20115;-74
2023/03/21 08:26:09;;;;;;;18.50;8.35;;;;;;;8.25;100.00;101409.81;5093689;28;20032;-74
2023/03/21 08:28:35;;;;;;;17.02;7.63;;;;;;;8.30;100.00;101405.03;5093167;28;20380;-74
2023/03/21 08:31:07;;;;;;;19.10;8.20;;;;;;;8.43;100.00;101399.69;5094184;28;20043;-74
2023/03/21 08:33:32;;;;;;;;;;;;;;;8.60;100.00;101394.03;5094809;28;20048;-73
2023/03/21 08:35:59;;;;;;;13.02;7.38;;;;;;;8.85;100.00;101394.84;5093613;28;19920;-73
2023/03/21 08:38:28;;;;;;;18.48;6.85;;;;;;;9.05;100.00;101382.75;5094561;28;20032;-73
2023/03/21 08:40:54;;;;;;;16.08;6.45;;;;;;;9.14;100.00;101382.03;5093960;28;20036;-73
2023/03/21 08:43:20;;;;;;;14.82;6.43;;;;;;;9.18;100.00;101374.69;5076346;28;20036;-74
2023/03/21 08:45:45;;;;;;;14.20;6.80;;;;;;;9.42;100.00;101374.63;5093955;28;20376;-74
2023/03/21 08:48:10;;;;;;;14.75;6.47;;;;;;;9.52;100.00;101372.97;5094446;28;20036;-75
2023/03/21 08:50:36;;;;;;;17.40;6.78;;;;;;;9.57;100.00;101374.41;5094182;28;20032;-74
2023/03/21 08:53:01;;;;;;;13.95;6.35;;;;;;;9.41;100.00;101367.63;5093809;28;20081;-74
2023/03/21 08:55:27;;;;;;;12.18;6.55;;;;;;;9.52;100.00;101367.66;5094373;28;20028;-74
2023/03/21 08:57:52;;;;;;;16.33;7.25;;;;;;;9.59;100.00;101368.00;5093711;28;20111;-73
2023/03/21 09:00:19;;;;;;;12.90;6.35;;;;;;;9.65;100.00;101356.06;5094027;28;20036;-72
2023/03/21 09:02:47;;;;;;;17.08;7.32;;;;;;;9.88;100.00;101352.44;5093603;28;20050;-73
2023/03/21 09:05:13;;;;;;;12.60;6.78;;;;;;;10.08;100.00;101355.31;5093955;28;20036;-73
2023/03/21 09:07:40;;;;;;;13.75;6.65;;;;;;;10.23;100.00;101345.25;5092633;28;20032;-72
2023/03/21 09:10:09;;;;;;;13.30;6.40;;;;;;;10.42;100.00;101339.31;5093452;28;20039;-73
2023/03/21 09:12:34;;;;;;;15.77;6.57;;;;;;;10.41;100.00;101337.63;5094237;28;20032;-72
2023/03/21 09:15:01;;;;;;;18.90;7.47;;;;;;;10.34;100.00;101336.41;5093732;28;20479;-72
2023/03/21 09:17:27;;;;;;;14.52;7.72;;;;;;;10.25;100.00;101335.31;5093737;28;20043;-73
2023/03/21 09:19:53;;;;;;;19.23;7.57;;;;;;;10.22;100.00;101335.56;5093414;28;20036;-72
2023/03/21 09:22:22;;;;;;;17.92;6.90;;;;;;;10.24;100.00;101331.00;5093706;28;20028;-72
2023/03/21 09:24:49;;;;;;;19.42;7.57;;;;;;;10.17;100.00;101332.44;5093031;28;20029;-73
2023/03/21 09:27:21;;;;;;;19.55;7.63;;;;;;;10.06;100.00;101339.47;5093619;28;20372;-72
2023/03/21 09:29:48;;;;;;;17.17;7.65;;;;;;;10.11;100.00;101331.13;5093524;28;20028;-73
2023/03/21 09:32:14;;;;;;;15.48;7.75;;;;;;;10.19;100.00;101319.88;5093849;28;20093;-71
2023/03/21 09:34:40;;;;;;;18.42;7.38;;;;;;;10.20;100.00;101322.41;5092989;28;20481;-72
2023/03/21 09:37:12;;;;;;;22.83;8.88;;;;;;;10.29;100.00;101333.28;5092635;28;20135;-72
2023/03/21 09:39:41;;;;;;;20.80;7.95;;;;;;;10.23;100.00;101331.94;5093385;28;20038;-71
2023/03/21 09:42:26;;;;;;;15.85;7.53;;;;;;;10.29;100.00;101335.94;5092202;28;20024;-71
2023/03/21 09:45:16;;;;;;;17.23;7.65;;;;;;;10.36;100.00;101326.50;5092946;28;20468;-73
2023/03/21 09:47:52;;;;;;;20.25;7.93;;;;;;;10.22;100.00;101327.59;5093604;28;20042;-72
2023/03/21 09:50:30;;;;;;;16.63;7.80;;;;;;;10.37;100.00;101342.31;5093297;28;20107;-72
2023/03/21 09:52:56;;;;;;;15.45;7.35;;;;;;;10.42;100.00;101341.97;5092783;28;20043;-73
2023/03/21 09:55:33;;;;;;;16.08;7.70;;;;;;;10.50;100.00;101344.81;5092996;28;20028;-73
2023/03/21 09:58:25;;;;;;;19.73;7.57;;;;;;;10.64;100.00;101337.53;5092597;28;20031;-72
2023/03/21 10:00:55;;;;;;;16.70;8.23;;;;;;;10.75;100.00;101333.00;5091951;28;20036;-71
2023/03/21 10:03:30;;;;;;;13.18;7.13;;;;;;;10.87;100.00;101332.97;5093127;28;20349;-71
2023/03/21 10:06:00;;;;;;;14.57;7.38;;;;;;;10.77;100.00;101323.06;5092608;28;20065;-72
2023/03/21 10:08:36;;;;;;;19.33;7.25;;;;;;;10.65;100.00;101326.75;5092985;28;20035;-72
2023/03/21 10:11:27;;;;;;;18.35;6.60;;;;;;;10.62;100.00;101315.53;5092120;28;20380;-72
2023/03/21 10:13:59;;;;;;;;;;;;;;;10.56;100.00;101336.34;5084409;28;20047;-71
2023/03/21 10:16:35;;;;;;;14.60;6.40;;;;;;;10.55;100.00;101334.66;5092852;28;19908;-71
2023/03/21 10:19:08;;;;;;;19.33;7.47;;;;;;;10.66;100.00;101339.09;5092495;28;20024;-74
2023/03/21 10:21:38;;;;;;;20.88;7.18;;;;;;;10.75;100.00;101338.31;5092674;28;20024;-73
2023/03/21 10:24:05;;;;;;;18.30;7.63;;;;;;;10.86;100.00;101339.25;5092329;28;20115;-73
2023/03/21 10:26:31;;;;;;;19.67;7.47;;;;;;;10.98;100.00;101348.03;5092504;28;20422;-74
2023/03/21 10:29:00;;;;;;;14.50;7.63;;;;;;;11.20;100.00;101347.88;5090268;28;20032;-75
2023/03/21 10:31:28;;;;;;;15.13;7.57;;;;;;;11.23;100.00;101350.28;5092560;28;20464;-73
2023/03/21 10:33:57;;;;;;;16.55;8.48;;;;;;;11.16;100.00;101361.59;5092692;28;20032;-73
2023/03/21 10:36:29;;;;;;;17.95;8.80;;;;;;;10.95;100.00;101351.78;5091953;28;20063;-74
2023/03/21 10:39:31;;;;;;;28.10;7.85;;;;;;;10.57;100.00;101354.00;5092511;28;20024;-73
2023/03/21 10:41:56;;;;;;;20.60;8.30;;;;;;;10.44;100.00;101350.66;5060248;28;20068;-73
2023/03/21 10:44:28;;;;;;;17.23;8.20;;;;;;;10.30;100.00;101335.81;5092332;28;20067;-74
2023/03/21 10:46:56;;;;;;;14.15;7.97;;;;;;;10.06;100.00;101341.28;5092383;28;20032;-72
2023/03/21 10:49:22;;;;;;;17.00;8.52;;;;;;;10.04;100.00;101327.28;5091859;28;20028;-73
2023/03/21 10:51:55;;;;;;;19.60;8.98;;;;;;;10.06;100.00;101320.00;5092705;28;20028;-72
2023/03/21 10:54:27;;;;;;;17.40;8.20;;;;;;;10.20;100.00;101322.41;5095898;28;20032;-72
2023/03/21 10:56:57;;;;;;;18.25;8.35;;;;;;;10.37;100.00;101317.53;5096519;28;20024;-72
2023/03/21 10:59:24;;;;;;;17.02;8.57;;;;;;;10.53;100.00;101317.13;5095902;28;20032;-72
2023/03/21 11:01:51;;;;;;;15.93;7.55;;;;;;;10.79;100.00;101311.44;5096254;28;20055;-71
2023/03/21 11:04:21;;;;;;;22.15;7.65;;;;;;;11.14;100.00;101299.59;5092774;28;20039;-72
2023/03/21 11:06:53;;;;;;;13.40;7.57;;;;;;;11.31;100.00;101306.16;5093415;28;20459;-72
2023/03/21 11:09:23;;;;;;;16.23;7.82;;;;;;;11.28;100.00;101293.94;5093093;28;20031;-74
2023/03/21 11:11:54;;;;;;;14.43;7.25;;;;;;;11.11;100.00;101295.41;5093204;28;20066;-73
2023/03/21 11:14:43;;;;;;;18.98;8.50;;;;;;;10.99;100.00;101296.44;5092665;28;20116;-72
2023/03/21 11:17:17;;;;;;;13.48;8.35;;;;;;;11.01;100.00;101305.16;5092815;28;20070;-72
2023/03/21 11:19:57;;;;;;;14.73;7.53;;;;;;;11.08;100.00;101307.16;5093145;28;20107;-72